createdAt,value
2023-05-17T00:00:33.664Z,17.63
2023-05-17T00:03:00.762Z,17.65
2023-05-17T00:05:27.927Z,17.66
2023-05-17T00:07:54.924Z,17.63
2023-05-17T00:10:21.878Z,17.61
2023-05-17T00:12:48.769Z,17.60
2023-05-17T00:15:15.737Z,17.63
2023-05-17T00:17:42.638Z,17.69
2023-05-17T00:20:09.675Z,17.71
2023-05-17T00:22:36.656Z,17.72
2023-05-17T00:25:04.267Z,17.72
2023-05-17T00:27:31.126Z,17.71
2023-05-17T00:29:58.066Z,17.69
2023-05-17T00:32:25.082Z,17.66
2023-05-17T00:34:52.017Z,17.63
2023-05-17T00:37:18.926Z,17.59
2023-05-17T00:39:45.836Z,17.57
2023-05-17T00:42:12.868Z,17.56
2023-05-17T00:44:39.761Z,17.60
2023-05-17T00:47:06.896Z,17.66
2023-05-17T00:49:33.901Z,17.71
2023-05-17T00:52:00.839Z,17.75
2023-05-17T00:54:27.867Z,17.78
2023-05-17T00:56:54.975Z,17.79
2023-05-17T00:59:22.685Z,17.79
2023-05-17T01:01:49.569Z,17.77
2023-05-17T01:04:16.654Z,17.75
2023-05-17T01:06:43.597Z,17.73
2023-05-17T01:09:10.485Z,17.71
2023-05-17T01:11:56.253Z,17.69
2023-05-17T01:14:27.779Z,17.67
2023-05-17T01:17:01.385Z,17.63
2023-05-17T01:19:53.919Z,17.62
2023-05-17T01:22:32.365Z,17.66
2023-05-17T01:24:59.295Z,17.70
2023-05-17T01:27:26.154Z,17.74
2023-05-17T01:29:53.095Z,17.75
2023-05-17T01:32:20.033Z,17.76
2023-05-17T01:34:46.972Z,17.75
2023-05-17T01:37:13.800Z,17.74
2023-05-17T01:39:41.592Z,17.72
2023-05-17T01:42:14.753Z,17.71
2023-05-17T01:44:55.574Z,17.73
2023-05-17T01:47:41.031Z,17.76
2023-05-17T01:50:08.092Z,17.75
2023-05-17T01:52:38.774Z,17.73
2023-05-17T01:55:13.125Z,17.70
2023-05-17T01:57:40.010Z,17.66
2023-05-17T02:00:08.770Z,17.62
2023-05-17T02:02:46.293Z,17.58
2023-05-17T02:05:13.542Z,17.55
2023-05-17T02:07:40.637Z,17.52
2023-05-17T02:10:08.123Z,17.54
2023-05-17T02:12:36.191Z,17.59
2023-05-17T02:15:03.276Z,17.63
2023-05-17T02:17:30.210Z,17.62
2023-05-17T02:19:57.130Z,17.62
2023-05-17T02:22:24.016Z,17.63
2023-05-17T02:24:50.886Z,17.63
2023-05-17T02:27:17.743Z,17.62
2023-05-17T02:29:44.604Z,17.58
2023-05-17T02:32:11.542Z,17.55
2023-05-17T02:34:38.472Z,17.57
2023-05-17T02:37:05.604Z,17.63
2023-05-17T02:39:33.717Z,17.66
2023-05-17T02:42:00.679Z,17.68
2023-05-17T02:44:27.528Z,17.69
2023-05-17T02:46:54.590Z,17.69
2023-05-17T02:49:21.514Z,17.70
2023-05-17T02:51:48.383Z,17.71
2023-05-17T02:54:15.290Z,17.71
2023-05-17T02:56:42.384Z,17.75
2023-05-17T02:59:09.527Z,17.80
2023-05-17T03:01:37.900Z,17.82
2023-05-17T03:04:05.078Z,17.82
2023-05-17T03:06:32.143Z,17.82
2023-05-17T03:08:59.123Z,17.83
2023-05-17T03:11:26.140Z,17.86
2023-05-17T03:13:54.449Z,17.90
2023-05-17T03:16:25.189Z,17.90
2023-05-17T03:18:52.444Z,17.90
2023-05-17T03:21:19.848Z,17.96
2023-05-17T03:36:48.681Z,18.31
2023-05-17T03:39:15.821Z,18.78
2023-05-17T03:41:43.126Z,18.80
2023-05-17T03:44:10.808Z,18.77
2023-05-17T03:46:37.798Z,18.74
2023-05-17T03:49:05.303Z,18.72
2023-05-17T03:51:33.569Z,18.70
2023-05-17T03:54:01.288Z,18.68
2023-05-17T03:56:29.701Z,18.67
2023-05-17T03:58:56.720Z,18.67
2023-05-17T04:01:23.744Z,18.67
2023-05-17T04:03:50.921Z,18.67
2023-05-17T04:06:18.614Z,18.67
2023-05-17T04:08:45.642Z,18.70
2023-05-17T04:11:15.473Z,18.72
2023-05-17T04:13:43.116Z,18.72
2023-05-17T04:16:10.288Z,18.73
2023-05-17T04:18:38.830Z,18.77
2023-05-17T04:21:06.099Z,18.78
2023-05-17T04:23:34.286Z,18.80
2023-05-17T04:26:01.660Z,18.83
2023-05-17T04:28:29.085Z,18.86
2023-05-17T04:30:56.193Z,18.87
2023-05-17T04:33:24.376Z,18.88
2023-05-17T04:35:51.759Z,18.88
2023-05-17T04:38:18.764Z,18.89
2023-05-17T04:40:45.709Z,18.91
2023-05-17T04:43:12.682Z,18.94
2023-05-17T04:45:41.167Z,18.97
2023-05-17T04:48:08.520Z,19.00
2023-05-17T04:50:35.857Z,19.02
2023-05-17T04:53:05.084Z,19.03
2023-05-17T04:55:33.390Z,19.04
2023-05-17T04:58:00.763Z,19.07
2023-05-17T05:00:28.217Z,19.11
2023-05-17T05:03:02.351Z,19.17
2023-05-17T05:05:29.468Z,19.24
2023-05-17T05:07:57.832Z,19.30
2023-05-17T05:10:24.944Z,19.37
2023-05-17T05:12:52.115Z,19.43
2023-05-17T05:15:19.368Z,19.48
2023-05-17T05:17:51.528Z,19.54
2023-05-17T05:20:19.298Z,19.60
2023-05-17T05:22:46.253Z,19.65
2023-05-17T05:25:13.779Z,19.70
2023-05-17T05:27:40.664Z,19.75
2023-05-17T05:30:08.759Z,19.81
2023-05-17T05:32:37.997Z,19.87
2023-05-17T05:35:05.790Z,19.94
2023-05-17T05:37:32.777Z,19.98
2023-05-17T05:40:00.000Z,20.03
2023-05-17T05:42:27.803Z,20.10
2023-05-17T05:44:54.794Z,20.16
2023-05-17T05:47:22.664Z,20.22
2023-05-17T05:49:49.539Z,20.28
2023-05-17T05:52:16.462Z,20.33
2023-05-17T05:54:44.160Z,20.39
2023-05-17T05:57:11.178Z,20.43
2023-05-17T05:59:38.175Z,20.48
2023-05-17T06:02:05.920Z,20.55
2023-05-17T06:04:43.943Z,20.61
2023-05-17T06:07:12.548Z,20.67
2023-05-17T06:09:39.401Z,20.74
2023-05-17T06:12:06.339Z,20.82
2023-05-17T06:14:33.258Z,20.91
2023-05-17T06:17:00.242Z,21.01
2023-05-17T06:19:27.263Z,21.10
2023-05-17T06:21:56.501Z,21.19
2023-05-17T06:24:23.416Z,21.28
2023-05-17T06:26:51.077Z,21.39
2023-05-17T06:29:18.167Z,21.45
2023-05-17T06:31:45.218Z,21.53
2023-05-17T06:34:13.488Z,21.59
2023-05-17T06:36:40.931Z,21.66
2023-05-17T06:39:08.720Z,21.73
2023-05-17T06:41:35.863Z,21.80
2023-05-17T06:44:02.809Z,21.89
2023-05-17T06:46:30.198Z,22.01
2023-05-17T06:48:58.534Z,22.12
2023-05-17T06:51:26.128Z,22.23
2023-05-17T06:53:54.127Z,22.35
2023-05-17T06:56:21.145Z,22.47
2023-05-17T06:58:48.066Z,22.57
2023-05-17T07:01:15.997Z,22.68
2023-05-17T07:03:43.488Z,22.79
2023-05-17T07:06:10.829Z,22.88
2023-05-17T07:08:37.794Z,22.94
2023-05-17T07:11:08.380Z,22.99
2023-05-17T07:13:35.366Z,23.04
2023-05-17T07:16:02.452Z,23.08
2023-05-17T07:18:29.612Z,23.13
2023-05-17T07:20:56.623Z,23.21
2023-05-17T07:23:23.666Z,23.30
2023-05-17T07:25:51.263Z,23.38
2023-05-17T07:28:18.144Z,23.46
2023-05-17T07:30:45.059Z,23.55
2023-05-17T07:33:12.645Z,23.66
2023-05-17T07:35:39.558Z,23.76
2023-05-17T07:38:06.381Z,23.86
2023-05-17T07:40:35.379Z,23.98
2023-05-17T07:43:02.289Z,24.10
2023-05-17T07:45:29.326Z,24.20
2023-05-17T07:47:56.876Z,24.31
2023-05-17T07:50:24.217Z,24.40
2023-05-17T07:52:51.094Z,24.50
2023-05-17T07:55:18.145Z,24.57
2023-05-17T07:57:45.409Z,24.65
2023-05-17T08:00:13.695Z,24.73
2023-05-17T08:02:41.298Z,24.73
2023-05-17T08:05:08.940Z,24.75
2023-05-17T08:07:35.868Z,24.81
2023-05-17T08:10:02.900Z,24.86
2023-05-17T08:12:29.779Z,24.93
2023-05-17T08:14:57.050Z,25.02
2023-05-17T08:17:24.055Z,25.12
2023-05-17T08:19:51.122Z,25.16
2023-05-17T08:22:18.095Z,25.20
2023-05-17T08:24:47.930Z,25.24
2023-05-17T08:27:15.052Z,25.32
2023-05-17T08:29:42.060Z,25.38
2023-05-17T08:32:08.981Z,25.44
2023-05-17T08:34:36.952Z,25.51
2023-05-17T08:37:04.057Z,25.56
2023-05-17T08:39:31.685Z,25.57
2023-05-17T08:41:59.875Z,25.59
2023-05-17T08:44:28.465Z,25.63
2023-05-17T08:46:55.397Z,25.63
2023-05-17T08:49:23.073Z,25.65
2023-05-17T08:51:50.221Z,25.64
2023-05-17T08:54:17.100Z,25.63
2023-05-17T08:56:44.147Z,25.63
2023-05-17T08:59:11.039Z,25.68
2023-05-17T09:01:40.082Z,25.74
2023-05-17T09:04:07.281Z,25.81
2023-05-17T09:06:34.185Z,25.85
2023-05-17T09:09:02.503Z,25.87
2023-05-17T09:11:31.082Z,25.89
2023-05-17T09:14:07.615Z,25.93
2023-05-17T09:16:36.418Z,26.01
2023-05-17T09:19:05.425Z,26.11
2023-05-17T09:21:32.855Z,26.19
2023-05-17T09:24:07.749Z,26.25
2023-05-17T09:26:46.012Z,26.30
2023-05-17T09:29:20.999Z,26.35
2023-05-17T09:31:48.010Z,26.41
2023-05-17T09:34:18.139Z,26.50
2023-05-17T09:36:45.096Z,26.65
2023-05-17T09:39:13.763Z,26.77
2023-05-17T09:41:45.629Z,26.83
2023-05-17T09:44:13.514Z,26.89
2023-05-17T09:46:48.276Z,27.00
2023-05-17T09:49:17.610Z,27.12
2023-05-17T09:51:48.587Z,27.21
2023-05-17T09:54:15.628Z,27.35
2023-05-17T09:56:43.270Z,27.49
2023-05-17T09:59:15.195Z,27.63
2023-05-17T10:01:43.977Z,27.69
2023-05-17T10:04:11.955Z,27.74
2023-05-17T10:06:49.751Z,27.83
2023-05-17T10:09:19.017Z,27.90
2023-05-17T10:11:46.895Z,27.99
2023-05-17T10:14:32.475Z,28.06
2023-05-17T10:16:59.712Z,28.16
2023-05-17T10:19:26.757Z,28.26
2023-05-17T10:21:56.535Z,28.32
2023-05-17T10:24:24.755Z,28.35
2023-05-17T10:26:54.941Z,28.35
2023-05-17T10:29:21.851Z,28.38
2023-05-17T10:31:50.331Z,28.37
2023-05-17T10:34:17.357Z,28.35
2023-05-17T10:36:44.365Z,28.39
2023-05-17T10:39:11.346Z,28.43
2023-05-17T10:41:43.267Z,28.45
2023-05-17T10:44:12.763Z,28.47
2023-05-17T10:46:39.848Z,28.52
2023-05-17T10:49:07.216Z,28.56
2023-05-17T10:51:35.182Z,28.60
2023-05-17T10:54:18.859Z,28.63
2023-05-17T10:56:52.382Z,28.64
2023-05-17T10:59:19.916Z,28.63
2023-05-17T11:02:06.427Z,28.60
2023-05-17T11:04:37.801Z,28.55
2023-05-17T11:07:17.423Z,28.50
2023-05-17T11:09:45.171Z,28.46
2023-05-17T11:12:13.008Z,28.41
2023-05-17T11:14:49.279Z,28.36
2023-05-17T11:17:20.625Z,28.32
2023-05-17T11:20:27.250Z,28.23
2023-05-17T11:23:02.615Z,28.10
2023-05-17T11:25:31.241Z,27.98
2023-05-17T11:27:58.370Z,27.91
2023-05-17T11:30:32.314Z,27.81
2023-05-17T11:33:07.017Z,27.74
2023-05-17T11:35:39.066Z,27.67
2023-05-17T11:38:22.351Z,27.56
2023-05-17T11:40:50.967Z,27.48
2023-05-17T11:43:23.069Z,27.44
2023-05-17T11:45:52.898Z,27.41
2023-05-17T11:48:22.233Z,27.38
2023-05-17T11:50:50.074Z,27.38
2023-05-17T11:53:17.035Z,27.39
2023-05-17T11:55:48.195Z,27.40
2023-05-17T11:58:16.302Z,27.42
2023-05-17T12:00:43.497Z,27.44
2023-05-17T12:03:27.395Z,27.46
2023-05-17T12:06:13.795Z,27.47
2023-05-17T12:08:45.417Z,27.48
2023-05-17T12:11:17.506Z,27.51
2023-05-17T12:13:46.913Z,27.53
2023-05-17T12:16:17.577Z,27.55
2023-05-17T12:18:49.775Z,27.55
2023-05-17T12:21:18.289Z,27.59
2023-05-17T12:23:47.852Z,27.66
2023-05-17T12:26:16.546Z,27.77
2023-05-17T12:28:47.393Z,27.90
2023-05-17T12:31:18.635Z,28.04
2023-05-17T12:33:47.956Z,28.23
2023-05-17T12:36:15.038Z,28.50
2023-05-17T12:38:42.646Z,28.77
2023-05-17T12:41:14.811Z,29.03
2023-05-17T12:43:43.624Z,29.25
2023-05-17T12:46:20.825Z,29.42
2023-05-17T12:48:49.495Z,29.54
2023-05-17T12:51:23.375Z,29.65
2023-05-17T12:53:54.908Z,29.77
2023-05-17T12:56:28.653Z,29.86
2023-05-17T12:59:14.194Z,29.92
2023-05-17T13:01:48.605Z,29.96
2023-05-17T13:04:17.247Z,29.95
2023-05-17T13:06:47.931Z,29.93
2023-05-17T13:09:16.086Z,29.88
2023-05-17T13:11:43.176Z,29.81
2023-05-17T13:14:12.577Z,29.74
2023-05-17T13:16:40.363Z,29.65
2023-05-17T13:19:13.991Z,29.53
2023-05-17T13:21:41.165Z,29.38
2023-05-17T13:24:09.488Z,29.23
2023-05-17T13:26:36.414Z,29.09
2023-05-17T13:29:03.531Z,28.97
2023-05-17T13:31:30.481Z,28.87
2023-05-17T13:33:57.469Z,28.78
2023-05-17T13:36:24.480Z,28.70
2023-05-17T13:38:51.320Z,28.63
2023-05-17T13:41:18.242Z,28.55
2023-05-17T13:43:45.082Z,28.45
2023-05-17T13:46:11.910Z,28.34
2023-05-17T13:48:40.460Z,28.19
2023-05-17T13:51:09.706Z,28.09
2023-05-17T13:53:38.709Z,28.00
2023-05-17T13:56:06.023Z,27.93
2023-05-17T13:58:33.030Z,27.85
2023-05-17T14:00:59.850Z,27.79
2023-05-17T14:03:26.997Z,27.78
2023-05-17T14:05:54.397Z,27.78
2023-05-17T14:08:21.356Z,27.79
2023-05-17T14:10:48.532Z,27.77
2023-05-17T14:13:15.641Z,27.74
2023-05-17T14:15:42.498Z,27.69
2023-05-17T14:18:09.829Z,27.65
2023-05-17T14:20:36.858Z,27.64
2023-05-17T14:23:03.804Z,27.62
2023-05-17T14:25:30.838Z,27.64
2023-05-17T14:27:57.872Z,27.66
2023-05-17T14:30:24.849Z,27.69
2023-05-17T14:32:51.869Z,27.70
2023-05-17T14:35:18.988Z,27.70
2023-05-17T14:37:45.963Z,27.69
2023-05-17T14:40:13.071Z,27.70
2023-05-17T14:42:40.137Z,27.68
2023-05-17T14:45:08.217Z,27.67
2023-05-17T14:47:36.926Z,27.66
2023-05-17T14:50:04.550Z,27.66
2023-05-17T14:52:31.614Z,27.65
2023-05-17T14:54:58.895Z,27.65
2023-05-17T14:57:26.080Z,27.64
2023-05-17T14:59:53.152Z,27.64
2023-05-17T15:02:20.298Z,27.62
2023-05-17T15:04:47.603Z,27.57
2023-05-17T15:07:14.626Z,27.53
2023-05-17T15:09:41.932Z,27.51
2023-05-17T15:12:14.019Z,27.50
2023-05-17T15:14:41.141Z,27.46
2023-05-17T15:17:08.247Z,27.39
2023-05-17T15:19:35.250Z,27.33
2023-05-17T15:22:02.317Z,27.32
2023-05-17T15:24:29.768Z,27.32
2023-05-17T15:26:56.906Z,27.31
2023-05-17T15:29:23.797Z,27.26
2023-05-17T15:31:50.713Z,27.24
2023-05-17T15:34:17.821Z,27.24
2023-05-17T15:36:44.899Z,27.20
2023-05-17T15:39:11.854Z,27.17
2023-05-17T15:44:09.465Z,26.89
2023-05-17T15:46:36.730Z,26.95
2023-05-17T15:49:03.605Z,26.86
2023-05-17T15:51:31.024Z,26.80
2023-05-17T15:53:58.065Z,26.74
2023-05-17T15:56:25.040Z,26.66
2023-05-17T15:58:52.678Z,26.58
2023-05-17T16:01:19.585Z,26.49
2023-05-17T16:03:46.984Z,26.40
2023-05-17T16:06:14.622Z,26.31
2023-05-17T16:08:42.133Z,26.22
2023-05-17T16:11:10.034Z,26.14
2023-05-17T16:13:37.072Z,26.05
2023-05-17T16:16:04.098Z,25.96
2023-05-17T16:18:31.908Z,25.86
2023-05-17T16:21:03.168Z,25.77
2023-05-17T16:23:30.100Z,25.67
2023-05-17T16:25:57.175Z,25.56
2023-05-17T16:28:24.161Z,25.47
2023-05-17T16:30:51.839Z,25.41
2023-05-17T16:33:27.958Z,25.33
2023-05-17T16:36:00.939Z,25.24
2023-05-17T16:38:27.967Z,25.17
2023-05-17T16:40:54.879Z,25.09
2023-05-17T16:43:21.814Z,25.02
2023-05-17T16:45:50.077Z,24.95
2023-05-17T16:48:17.662Z,24.87
2023-05-17T16:50:44.757Z,24.81
2023-05-17T16:53:14.471Z,24.74
2023-05-17T16:55:42.316Z,24.65
2023-05-17T16:58:59.750Z,24.55
2023-05-17T17:01:29.770Z,24.41
2023-05-17T17:04:07.593Z,24.29
2023-05-17T17:06:34.784Z,24.19
2023-05-17T17:09:02.080Z,24.09
2023-05-17T17:11:29.099Z,24.00
2023-05-17T17:14:15.313Z,23.90
2023-05-17T17:16:42.451Z,23.78
2023-05-17T17:19:13.026Z,23.66
2023-05-17T17:21:42.376Z,23.56
2023-05-17T17:24:09.345Z,23.48
2023-05-17T17:26:36.396Z,23.37
2023-05-17T17:29:47.622Z,23.26
2023-05-17T17:32:14.572Z,23.15
2023-05-17T17:34:41.550Z,23.06
2023-05-17T17:37:08.632Z,22.95
2023-05-17T17:39:35.982Z,22.87
2023-05-17T17:42:03.041Z,22.78
2023-05-17T17:44:29.964Z,22.71
2023-05-17T17:46:56.901Z,22.62
2023-05-17T17:49:26.936Z,22.53
2023-05-17T17:51:53.998Z,22.45
2023-05-17T17:54:21.546Z,22.36
2023-05-17T17:57:14.098Z,22.24
2023-05-17T17:59:41.240Z,22.14
2023-05-17T18:02:08.112Z,22.06
2023-05-17T18:04:35.259Z,21.97
2023-05-17T18:07:02.918Z,21.88
2023-05-17T18:09:29.776Z,21.79
2023-05-17T18:11:57.305Z,21.70
2023-05-17T18:14:24.389Z,21.62
2023-05-17T18:16:51.651Z,21.56
2023-05-17T18:19:18.989Z,21.48
2023-05-17T18:21:46.415Z,21.41
2023-05-17T18:24:13.420Z,21.35
2023-05-17T18:26:40.577Z,21.29
2023-05-17T18:29:07.514Z,21.23
2023-05-17T18:31:34.516Z,21.18
2023-05-17T18:34:01.499Z,21.08
2023-05-17T18:36:28.575Z,20.98
2023-05-17T18:38:58.747Z,21.00
2023-05-17T18:41:26.237Z,21.00
2023-05-17T18:43:53.337Z,20.94
2023-05-17T18:46:20.292Z,20.88
2023-05-17T18:48:47.271Z,20.84
2023-05-17T18:51:15.875Z,20.77
2023-05-17T18:53:42.860Z,20.69
2023-05-17T18:56:09.766Z,20.64
2023-05-17T18:58:36.702Z,20.59
2023-05-17T19:01:03.794Z,20.55
2023-05-17T19:03:31.253Z,20.53
2023-05-17T19:05:58.567Z,20.51
2023-05-17T19:08:25.615Z,20.49
2023-05-17T19:10:52.535Z,20.46
2023-05-17T19:13:19.412Z,20.41
2023-05-17T19:15:46.639Z,20.36
2023-05-17T19:18:13.588Z,20.31
2023-05-17T19:20:40.535Z,20.27
2023-05-17T19:23:07.583Z,20.22
2023-05-17T19:25:34.706Z,20.18
2023-05-17T19:28:01.643Z,20.11
2023-05-17T19:30:32.555Z,20.04
2023-05-17T19:32:59.923Z,19.98
2023-05-17T19:35:26.779Z,19.94
2023-05-17T19:37:56.653Z,19.89
2023-05-17T19:40:24.321Z,19.84
2023-05-17T19:42:51.329Z,19.78
2023-05-17T19:45:18.260Z,19.74
2023-05-17T19:47:45.202Z,19.70
2023-05-17T19:50:12.219Z,19.66
2023-05-17T19:52:39.342Z,19.63
2023-05-17T19:55:06.541Z,19.57
2023-05-17T19:57:33.801Z,19.51
2023-05-17T20:00:00.878Z,19.48
2023-05-17T20:02:27.897Z,19.47
2023-05-17T20:04:54.833Z,19.44
2023-05-17T20:07:25.896Z,19.39
2023-05-17T20:09:53.512Z,19.32
2023-05-17T20:12:20.885Z,19.26
2023-05-17T20:14:47.809Z,19.22
2023-05-17T20:17:14.694Z,19.23
2023-05-17T20:19:41.566Z,19.25
2023-05-17T20:22:08.495Z,19.26
2023-05-17T20:24:35.358Z,19.26
2023-05-17T20:27:02.601Z,19.25
2023-05-17T20:29:29.564Z,19.25
2023-05-17T20:31:56.612Z,19.21
2023-05-17T20:34:24.635Z,19.17
2023-05-17T20:36:51.536Z,19.12
2023-05-17T20:39:19.710Z,19.08
2023-05-17T20:41:51.433Z,19.03
2023-05-17T20:44:45.341Z,18.99
2023-05-17T20:47:55.471Z,19.00
2023-05-17T20:50:47.405Z,19.02
2023-05-17T20:53:14.851Z,19.03
2023-05-17T20:55:44.858Z,19.01
2023-05-17T20:58:11.761Z,18.98
2023-05-17T21:00:38.621Z,18.93
2023-05-17T21:03:05.641Z,18.90
2023-05-17T21:05:36.175Z,18.85
2023-05-17T21:08:03.166Z,18.78
2023-05-17T21:10:30.398Z,18.73
2023-05-17T21:12:57.625Z,18.73
2023-05-17T21:15:25.192Z,18.74
2023-05-17T21:17:52.472Z,18.75
2023-05-17T21:20:20.029Z,18.72
2023-05-17T21:22:48.294Z,18.66
2023-05-17T21:25:15.210Z,18.63
2023-05-17T21:27:42.070Z,18.61
2023-05-17T21:30:09.293Z,18.57
2023-05-17T21:32:36.342Z,18.53
2023-05-17T21:35:03.362Z,18.48
2023-05-17T21:37:30.167Z,18.42
2023-05-17T21:39:57.076Z,18.34
2023-05-17T21:42:24.301Z,18.31
2023-05-17T21:44:51.202Z,18.32
2023-05-17T21:47:18.163Z,18.30
2023-05-17T21:49:45.046Z,18.23
2023-05-17T21:52:11.928Z,18.20
2023-05-17T21:54:39.287Z,18.18
2023-05-17T21:57:06.212Z,18.11
2023-05-17T21:59:33.328Z,18.06
2023-05-17T22:02:00.384Z,17.99
2023-05-17T22:04:27.347Z,17.92
2023-05-17T22:06:55.891Z,17.90
2023-05-17T22:09:23.172Z,17.92
2023-05-17T22:11:50.241Z,17.94
2023-05-17T22:14:17.309Z,17.93
2023-05-17T22:16:44.598Z,17.92
2023-05-17T22:19:11.612Z,17.88
2023-05-17T22:21:38.468Z,17.83
2023-05-17T22:24:05.661Z,17.76
2023-05-17T22:26:32.620Z,17.69
2023-05-17T22:28:59.519Z,17.68
2023-05-17T22:31:26.449Z,17.69
2023-05-17T22:33:54.029Z,17.64
2023-05-17T22:36:24.904Z,17.60
2023-05-17T22:38:51.935Z,17.55
2023-05-17T22:41:18.769Z,17.50
2023-05-17T22:43:45.879Z,17.46
2023-05-17T22:46:12.793Z,17.41
2023-05-17T22:48:40.589Z,17.41
2023-05-17T22:51:07.702Z,17.44
2023-05-17T22:53:34.663Z,17.45
2023-05-17T22:56:01.535Z,17.41
2023-05-17T22:58:28.406Z,17.40
2023-05-17T23:00:56.138Z,17.38
2023-05-17T23:03:23.038Z,17.35
2023-05-17T23:05:51.514Z,17.32
2023-05-17T23:08:18.377Z,17.32
2023-05-17T23:10:45.686Z,17.35
2023-05-17T23:13:12.910Z,17.38
2023-05-17T23:15:40.906Z,17.38
2023-05-17T23:18:08.136Z,17.34
2023-05-17T23:20:36.064Z,17.30
2023-05-17T23:23:03.109Z,17.24
2023-05-17T23:25:30.147Z,17.18
2023-05-17T23:28:00.113Z,17.13
2023-05-17T23:30:27.976Z,17.11
2023-05-17T23:32:55.453Z,17.12
2023-05-17T23:35:23.417Z,17.15
2023-05-17T23:37:50.406Z,17.17
2023-05-17T23:40:17.236Z,17.13
2023-05-17T23:42:44.184Z,17.06
2023-05-17T23:45:11.183Z,17.00
2023-05-17T23:47:40.810Z,16.96
2023-05-17T23:50:12.209Z,16.91
2023-05-17T23:52:39.469Z,16.88
2023-05-17T23:55:07.430Z,16.86
2023-05-17T23:57:35.365Z,16.87
